sensor_id;sensor_type;location;lat;lon;timestamp;P1;durP1;ratioP1;P2;durP2;ratioP2
56043;SDS011;41912;51.022;3.664;2023-07-28T00:01:24;5.15;;;2.60;;
56043;SDS011;41912;51.022;3.664;2023-07-28T00:03:50;3.38;;;2.47;;
56043;SDS011;41912;51.022;3.664;2023-07-28T00:06:16;6.28;;;2.70;;
56043;SDS011;41912;51.022;3.664;2023-07-28T00:08:41;4.97;;;2.33;;
56043;SDS011;41912;51.022;3.664;2023-07-28T00:11:10;6.82;;;2.22;;
56043;SDS011;41912;51.022;3.664;2023-07-28T00:13:40;5.70;;;2.63;;
56043;SDS011;41912;51.022;3.664;2023-07-28T00:16:07;3.50;;;2.22;;
56043;SDS011;41912;51.022;3.664;2023-07-28T00:18:33;3.85;;;2.72;;
56043;SDS011;41912;51.022;3.664;2023-07-28T00:20:59;8.35;;;2.90;;
56043;SDS011;41912;51.022;3.664;2023-07-28T00:23:25;4.72;;;2.80;;
56043;SDS011;41912;51.022;3.664;2023-07-28T00:25:51;11.05;;;3.50;;
56043;SDS011;41912;51.022;3.664;2023-07-28T00:28:16;6.72;;;2.83;;
56043;SDS011;41912;51.022;3.664;2023-07-28T00:30:42;3.75;;;2.70;;
56043;SDS011;41912;51.022;3.664;2023-07-28T00:33:08;6.78;;;3.00;;
56043;SDS011;41912;51.022;3.664;2023-07-28T00:35:33;7.55;;;3.20;;
56043;SDS011;41912;51.022;3.664;2023-07-28T00:37:59;5.43;;;2.95;;
56043;SDS011;41912;51.022;3.664;2023-07-28T00:40:25;6.00;;;3.30;;
56043;SDS011;41912;51.022;3.664;2023-07-28T00:42:50;6.00;;;3.38;;
56043;SDS011;41912;51.022;3.664;2023-07-28T00:45:16;5.63;;;2.88;;
56043;SDS011;41912;51.022;3.664;2023-07-28T00:47:41;6.28;;;3.72;;
56043;SDS011;41912;51.022;3.664;2023-07-28T00:50:10;6.28;;;3.42;;
56043;SDS011;41912;51.022;3.664;2023-07-28T00:52:37;7.03;;;3.20;;
56043;SDS011;41912;51.022;3.664;2023-07-28T00:55:03;5.50;;;3.28;;
56043;SDS011;41912;51.022;3.664;2023-07-28T00:57:30;6.57;;;3.47;;
56043;SDS011;41912;51.022;3.664;2023-07-28T00:59:56;6.95;;;3.55;;
56043;SDS011;41912;51.022;3.664;2023-07-28T01:02:22;3.90;;;3.17;;
56043;SDS011;41912;51.022;3.664;2023-07-28T01:04:48;7.60;;;3.50;;
56043;SDS011;41912;51.022;3.664;2023-07-28T01:07:21;5.47;;;3.30;;
56043;SDS011;41912;51.022;3.664;2023-07-28T01:10:02;7.35;;;3.45;;
56043;SDS011;41912;51.022;3.664;2023-07-28T01:12:54;8.15;;;3.20;;
56043;SDS011;41912;51.022;3.664;2023-07-28T01:15:20;6.32;;;3.47;;
56043;SDS011;41912;51.022;3.664;2023-07-28T01:17:46;10.82;;;3.03;;
56043;SDS011;41912;51.022;3.664;2023-07-28T01:20:11;5.28;;;3.03;;
56043;SDS011;41912;51.022;3.664;2023-07-28T01:22:48;8.30;;;3.15;;
56043;SDS011;41912;51.022;3.664;2023-07-28T01:31:04;5.22;;;2.95;;
56043;SDS011;41912;51.022;3.664;2023-07-28T01:33:31;8.10;;;3.10;;
56043;SDS011;41912;51.022;3.664;2023-07-28T01:35:57;9.07;;;3.50;;
56043;SDS011;41912;51.022;3.664;2023-07-28T01:38:25;3.15;;;2.63;;
56043;SDS011;41912;51.022;3.664;2023-07-28T01:40:54;9.25;;;3.20;;
56043;SDS011;41912;51.022;3.664;2023-07-28T01:43:20;5.38;;;2.75;;
56043;SDS011;41912;51.022;3.664;2023-07-28T01:45:45;7.53;;;3.60;;
56043;SDS011;41912;51.022;3.664;2023-07-28T01:48:11;8.00;;;2.75;;
56043;SDS011;41912;51.022;3.664;2023-07-28T01:50:37;7.78;;;2.65;;
56043;SDS011;41912;51.022;3.664;2023-07-28T01:53:04;10.30;;;2.90;;
56043;SDS011;41912;51.022;3.664;2023-07-28T01:55:30;7.03;;;3.25;;
56043;SDS011;41912;51.022;3.664;2023-07-28T01:57:57;7.00;;;3.60;;
56043;SDS011;41912;51.022;3.664;2023-07-28T02:00:23;8.68;;;3.90;;
56043;SDS011;41912;51.022;3.664;2023-07-28T02:02:49;4.90;;;3.38;;
56043;SDS011;41912;51.022;3.664;2023-07-28T02:05:16;4.60;;;3.55;;
56043;SDS011;41912;51.022;3.664;2023-07-28T02:07:42;4.45;;;3.67;;
56043;SDS011;41912;51.022;3.664;2023-07-28T02:10:08;9.40;;;3.78;;
56043;SDS011;41912;51.022;3.664;2023-07-28T02:12:35;4.72;;;3.55;;
56043;SDS011;41912;51.022;3.664;2023-07-28T02:15:01;6.47;;;3.22;;
56043;SDS011;41912;51.022;3.664;2023-07-28T02:17:26;9.40;;;3.40;;
56043;SDS011;41912;51.022;3.664;2023-07-28T02:19:52;6.65;;;2.97;;
56043;SDS011;41912;51.022;3.664;2023-07-28T02:22:18;6.05;;;2.80;;
56043;SDS011;41912;51.022;3.664;2023-07-28T02:24:43;6.00;;;2.28;;
56043;SDS011;41912;51.022;3.664;2023-07-28T02:27:09;6.32;;;3.13;;
56043;SDS011;41912;51.022;3.664;2023-07-28T02:29:35;4.45;;;2.38;;
56043;SDS011;41912;51.022;3.664;2023-07-28T02:32:00;4.45;;;2.60;;
56043;SDS011;41912;51.022;3.664;2023-07-28T02:34:26;4.20;;;2.40;;
56043;SDS011;41912;51.022;3.664;2023-07-28T02:36:52;5.85;;;2.25;;
56043;SDS011;41912;51.022;3.664;2023-07-28T02:39:17;3.80;;;2.30;;
56043;SDS011;41912;51.022;3.664;2023-07-28T02:41:43;8.30;;;2.42;;
56043;SDS011;41912;51.022;3.664;2023-07-28T02:44:09;4.22;;;2.10;;
56043;SDS011;41912;51.022;3.664;2023-07-28T02:46:35;3.05;;;1.90;;
56043;SDS011;41912;51.022;3.664;2023-07-28T02:49:02;3.58;;;2.17;;
56043;SDS011;41912;51.022;3.664;2023-07-28T02:51:29;2.92;;;2.00;;
56043;SDS011;41912;51.022;3.664;2023-07-28T02:53:55;5.65;;;2.60;;
56043;SDS011;41912;51.022;3.664;2023-07-28T02:56:20;3.97;;;1.90;;
56043;SDS011;41912;51.022;3.664;2023-07-28T02:58:47;4.45;;;1.77;;
56043;SDS011;41912;51.022;3.664;2023-07-28T03:01:13;3.20;;;1.52;;
56043;SDS011;41912;51.022;3.664;2023-07-28T03:03:39;5.60;;;1.60;;
56043;SDS011;41912;51.022;3.664;2023-07-28T03:06:04;5.60;;;1.63;;
56043;SDS011;41912;51.022;3.664;2023-07-28T03:08:30;2.95;;;1.30;;
56043;SDS011;41912;51.022;3.664;2023-07-28T03:10:59;6.25;;;1.92;;
56043;SDS011;41912;51.022;3.664;2023-07-28T03:13:27;3.03;;;1.45;;
56043;SDS011;41912;51.022;3.664;2023-07-28T03:15:53;3.80;;;1.70;;
56043;SDS011;41912;51.022;3.664;2023-07-28T03:18:19;4.57;;;1.45;;
56043;SDS011;41912;51.022;3.664;2023-07-28T03:20:45;2.28;;;1.20;;
56043;SDS011;41912;51.022;3.664;2023-07-28T03:23:11;5.75;;;1.33;;
56043;SDS011;41912;51.022;3.664;2023-07-28T03:25:37;2.15;;;1.30;;
56043;SDS011;41912;51.022;3.664;2023-07-28T03:28:02;3.38;;;1.80;;
56043;SDS011;41912;51.022;3.664;2023-07-28T03:30:28;5.28;;;1.45;;
56043;SDS011;41912;51.022;3.664;2023-07-28T03:32:54;1.15;;;1.00;;
56043;SDS011;41912;51.022;3.664;2023-07-28T03:35:19;6.63;;;1.30;;
56043;SDS011;41912;51.022;3.664;2023-07-28T03:37:45;1.55;;;1.35;;
56043;SDS011;41912;51.022;3.664;2023-07-28T03:40:11;6.55;;;1.02;;
56043;SDS011;41912;51.022;3.664;2023-07-28T03:42:37;1.83;;;1.30;;
56043;SDS011;41912;51.022;3.664;2023-07-28T03:45:03;2.65;;;1.48;;
56043;SDS011;41912;51.022;3.664;2023-07-28T03:47:28;3.95;;;1.38;;
56043;SDS011;41912;51.022;3.664;2023-07-28T03:49:54;2.90;;;1.10;;
56043;SDS011;41912;51.022;3.664;2023-07-28T03:52:20;1.52;;;1.23;;
56043;SDS011;41912;51.022;3.664;2023-07-28T03:54:45;2.30;;;1.10;;
56043;SDS011;41912;51.022;3.664;2023-07-28T03:57:11;4.45;;;1.10;;
56043;SDS011;41912;51.022;3.664;2023-07-28T03:59:36;2.75;;;1.00;;
56043;SDS011;41912;51.022;3.664;2023-07-28T04:02:02;3.35;;;0.85;;
56043;SDS011;41912;51.022;3.664;2023-07-28T04:04:28;2.08;;;0.77;;
56043;SDS011;41912;51.022;3.664;2023-07-28T04:06:54;4.38;;;1.80;;
56043;SDS011;41912;51.022;3.664;2023-07-28T04:09:19;2.25;;;1.00;;
56043;SDS011;41912;51.022;3.664;2023-07-28T04:11:45;1.23;;;0.90;;
56043;SDS011;41912;51.022;3.664;2023-07-28T04:14:12;5.13;;;1.20;;
56043;SDS011;41912;51.022;3.664;2023-07-28T04:16:38;4.85;;;1.40;;
56043;SDS011;41912;51.022;3.664;2023-07-28T04:19:03;4.65;;;1.10;;
56043;SDS011;41912;51.022;3.664;2023-07-28T04:21:29;6.68;;;1.20;;
56043;SDS011;41912;51.022;3.664;2023-07-28T04:23:55;8.40;;;1.70;;
56043;SDS011;41912;51.022;3.664;2023-07-28T04:26:21;5.68;;;1.80;;
56043;SDS011;41912;51.022;3.664;2023-07-28T04:28:48;2.80;;;1.88;;
56043;SDS011;41912;51.022;3.664;2023-07-28T04:31:14;3.40;;;2.17;;
56043;SDS011;41912;51.022;3.664;2023-07-28T04:33:42;2.58;;;1.63;;
56043;SDS011;41912;51.022;3.664;2023-07-28T04:36:08;2.63;;;1.80;;
56043;SDS011;41912;51.022;3.664;2023-07-28T04:38:35;5.35;;;2.22;;
56043;SDS011;41912;51.022;3.664;2023-07-28T04:41:00;2.38;;;1.90;;
56043;SDS011;41912;51.022;3.664;2023-07-28T04:43:26;3.42;;;2.22;;
56043;SDS011;41912;51.022;3.664;2023-07-28T04:45:52;3.83;;;2.50;;
56043;SDS011;41912;51.022;3.664;2023-07-28T04:48:18;4.78;;;2.65;;
56043;SDS011;41912;51.022;3.664;2023-07-28T04:50:44;6.25;;;2.92;;
56043;SDS011;41912;51.022;3.664;2023-07-28T04:53:10;3.53;;;2.75;;
56043;SDS011;41912;51.022;3.664;2023-07-28T04:55:36;3.17;;;2.30;;
56043;SDS011;41912;51.022;3.664;2023-07-28T04:58:01;4.75;;;2.67;;
56043;SDS011;41912;51.022;3.664;2023-07-28T05:00:27;4.07;;;2.38;;
56043;SDS011;41912;51.022;3.664;2023-07-28T05:02:53;7.20;;;2.58;;
56043;SDS011;41912;51.022;3.664;2023-07-28T05:05:19;4.80;;;3.00;;
56043;SDS011;41912;51.022;3.664;2023-07-28T05:07:44;7.60;;;3.00;;
56043;SDS011;41912;51.022;3.664;2023-07-28T05:10:10;4.68;;;2.90;;
56043;SDS011;41912;51.022;3.664;2023-07-28T05:12:36;6.50;;;3.10;;
56043;SDS011;41912;51.022;3.664;2023-07-28T05:15:01;3.80;;;3.03;;
56043;SDS011;41912;51.022;3.664;2023-07-28T05:17:27;5.95;;;2.72;;
56043;SDS011;41912;51.022;3.664;2023-07-28T05:19:53;4.82;;;2.42;;
56043;SDS011;41912;51.022;3.664;2023-07-28T05:22:18;4.82;;;2.97;;
56043;SDS011;41912;51.022;3.664;2023-07-28T05:24:44;6.53;;;2.72;;
56043;SDS011;41912;51.022;3.664;2023-07-28T05:27:12;14.25;;;3.60;;
56043;SDS011;41912;51.022;3.664;2023-07-28T05:29:38;7.90;;;3.50;;
56043;SDS011;41912;51.022;3.664;2023-07-28T05:32:05;3.67;;;3.30;;
56043;SDS011;41912;51.022;3.664;2023-07-28T05:34:31;8.45;;;3.42;;
56043;SDS011;41912;51.022;3.664;2023-07-28T05:36:57;9.57;;;2.88;;
56043;SDS011;41912;51.022;3.664;2023-07-28T05:39:22;4.20;;;3.20;;
56043;SDS011;41912;51.022;3.664;2023-07-28T05:41:48;6.55;;;2.92;;
56043;SDS011;41912;51.022;3.664;2023-07-28T05:44:14;4.07;;;2.47;;
56043;SDS011;41912;51.022;3.664;2023-07-28T05:46:39;2.50;;;2.17;;
56043;SDS011;41912;51.022;3.664;2023-07-28T05:49:05;5.43;;;2.15;;
56043;SDS011;41912;51.022;3.664;2023-07-28T05:51:31;4.28;;;1.95;;
56043;SDS011;41912;51.022;3.664;2023-07-28T05:53:56;5.55;;;2.15;;
56043;SDS011;41912;51.022;3.664;2023-07-28T05:56:22;3.67;;;2.17;;
56043;SDS011;41912;51.022;3.664;2023-07-28T05:58:48;4.35;;;2.15;;
56043;SDS011;41912;51.022;3.664;2023-07-28T06:01:14;3.67;;;1.85;;
56043;SDS011;41912;51.022;3.664;2023-07-28T06:03:39;4.68;;;1.67;;
56043;SDS011;41912;51.022;3.664;2023-07-28T06:06:05;3.20;;;2.00;;
56043;SDS011;41912;51.022;3.664;2023-07-28T06:08:31;5.18;;;2.17;;
56043;SDS011;41912;51.022;3.664;2023-07-28T06:10:56;3.88;;;2.35;;
56043;SDS011;41912;51.022;3.664;2023-07-28T06:13:22;5.63;;;2.17;;
56043;SDS011;41912;51.022;3.664;2023-07-28T06:15:48;4.82;;;2.20;;
56043;SDS011;41912;51.022;3.664;2023-07-28T06:18:13;5.68;;;2.00;;
56043;SDS011;41912;51.022;3.664;2023-07-28T06:20:42;2.75;;;2.25;;
56043;SDS011;41912;51.022;3.664;2023-07-28T06:23:09;5.28;;;2.42;;
56043;SDS011;41912;51.022;3.664;2023-07-28T06:25:34;9.18;;;3.00;;
56043;SDS011;41912;51.022;3.664;2023-07-28T06:28:01;4.97;;;2.80;;
56043;SDS011;41912;51.022;3.664;2023-07-28T06:30:27;6.38;;;2.53;;
56043;SDS011;41912;51.022;3.664;2023-07-28T06:32:53;8.80;;;2.95;;
56043;SDS011;41912;51.022;3.664;2023-07-28T06:35:19;5.93;;;2.97;;
56043;SDS011;41912;51.022;3.664;2023-07-28T06:37:44;10.25;;;2.92;;
56043;SDS011;41912;51.022;3.664;2023-07-28T06:40:10;9.55;;;3.25;;
56043;SDS011;41912;51.022;3.664;2023-07-28T06:42:36;12.23;;;2.80;;
56043;SDS011;41912;51.022;3.664;2023-07-28T06:45:02;3.65;;;2.53;;
56043;SDS011;41912;51.022;3.664;2023-07-28T06:47:28;4.43;;;2.50;;
56043;SDS011;41912;51.022;3.664;2023-07-28T06:49:54;5.93;;;2.50;;
56043;SDS011;41912;51.022;3.664;2023-07-28T06:52:20;7.30;;;2.72;;
56043;SDS011;41912;51.022;3.664;2023-07-28T06:54:45;8.65;;;3.17;;
56043;SDS011;41912;51.022;3.664;2023-07-28T06:57:14;5.65;;;2.95;;
56043;SDS011;41912;51.022;3.664;2023-07-28T06:59:40;6.32;;;3.10;;
56043;SDS011;41912;51.022;3.664;2023-07-28T07:02:06;8.32;;;3.42;;
56043;SDS011;41912;51.022;3.664;2023-07-28T07:04:31;6.35;;;3.00;;
56043;SDS011;41912;51.022;3.664;2023-07-28T07:06:57;6.10;;;2.75;;
56043;SDS011;41912;51.022;3.664;2023-07-28T07:09:23;8.27;;;3.45;;
56043;SDS011;41912;51.022;3.664;2023-07-28T07:11:48;9.95;;;3.50;;
56043;SDS011;41912;51.022;3.664;2023-07-28T07:14:14;6.78;;;3.42;;
56043;SDS011;41912;51.022;3.664;2023-07-28T07:16:39;7.43;;;3.40;;
56043;SDS011;41912;51.022;3.664;2023-07-28T07:19:05;5.88;;;3.03;;
56043;SDS011;41912;51.022;3.664;2023-07-28T07:21:31;10.05;;;3.30;;
56043;SDS011;41912;51.022;3.664;2023-07-28T07:23:56;7.38;;;3.10;;
56043;SDS011;41912;51.022;3.664;2023-07-28T07:26:22;6.85;;;3.20;;
56043;SDS011;41912;51.022;3.664;2023-07-28T07:28:48;11.43;;;4.00;;
56043;SDS011;41912;51.022;3.664;2023-07-28T07:31:14;10.98;;;3.40;;
56043;SDS011;41912;51.022;3.664;2023-07-28T07:33:40;8.65;;;3.60;;
56043;SDS011;41912;51.022;3.664;2023-07-28T07:36:11;8.13;;;3.05;;
56043;SDS011;41912;51.022;3.664;2023-07-28T07:38:40;5.18;;;3.15;;
56043;SDS011;41912;51.022;3.664;2023-07-28T07:41:06;7.05;;;3.65;;
56043;SDS011;41912;51.022;3.664;2023-07-28T07:43:33;4.93;;;3.20;;
56043;SDS011;41912;51.022;3.664;2023-07-28T07:45:59;6.47;;;3.38;;
56043;SDS011;41912;51.022;3.664;2023-07-28T07:48:25;8.95;;;3.08;;
56043;SDS011;41912;51.022;3.664;2023-07-28T07:50:51;6.05;;;3.42;;
56043;SDS011;41912;51.022;3.664;2023-07-28T07:53:16;7.43;;;3.30;;
56043;SDS011;41912;51.022;3.664;2023-07-28T07:55:42;6.80;;;3.55;;
56043;SDS011;41912;51.022;3.664;2023-07-28T07:58:08;5.75;;;3.55;;
56043;SDS011;41912;51.022;3.664;2023-07-28T08:00:34;7.07;;;2.90;;
56043;SDS011;41912;51.022;3.664;2023-07-28T08:03:01;6.00;;;3.00;;
56043;SDS011;41912;51.022;3.664;2023-07-28T08:05:27;8.27;;;3.47;;
56043;SDS011;41912;51.022;3.664;2023-07-28T08:07:53;6.03;;;3.55;;
56043;SDS011;41912;51.022;3.664;2023-07-28T08:10:20;7.57;;;3.65;;
56043;SDS011;41912;51.022;3.664;2023-07-28T08:12:45;6.88;;;4.07;;
56043;SDS011;41912;51.022;3.664;2023-07-28T08:15:12;5.55;;;3.80;;
56043;SDS011;41912;51.022;3.664;2023-07-28T08:17:38;7.50;;;3.80;;
56043;SDS011;41912;51.022;3.664;2023-07-28T08:20:04;17.73;;;4.28;;
56043;SDS011;41912;51.022;3.664;2023-07-28T08:22:31;9.00;;;3.70;;
56043;SDS011;41912;51.022;3.664;2023-07-28T08:24:57;6.35;;;3.20;;
56043;SDS011;41912;51.022;3.664;2023-07-28T08:27:23;6.60;;;3.38;;
56043;SDS011;41912;51.022;3.664;2023-07-28T08:29:49;6.75;;;3.08;;
56043;SDS011;41912;51.022;3.664;2023-07-28T08:32:14;6.90;;;3.35;;
56043;SDS011;41912;51.022;3.664;2023-07-28T08:34:40;5.93;;;2.95;;
56043;SDS011;41912;51.022;3.664;2023-07-28T08:37:06;6.07;;;2.92;;
56043;SDS011;41912;51.022;3.664;2023-07-28T08:39:32;6.35;;;3.13;;
56043;SDS011;41912;51.022;3.664;2023-07-28T08:41:58;4.68;;;2.78;;
56043;SDS011;41912;51.022;3.664;2023-07-28T08:44:25;6.80;;;2.85;;
56043;SDS011;41912;51.022;3.664;2023-07-28T08:46:51;4.93;;;2.50;;
56043;SDS011;41912;51.022;3.664;2023-07-28T08:49:17;4.40;;;2.67;;
56043;SDS011;41912;51.022;3.664;2023-07-28T08:51:48;5.68;;;2.67;;
56043;SDS011;41912;51.022;3.664;2023-07-28T08:54:14;5.30;;;2.58;;
56043;SDS011;41912;51.022;3.664;2023-07-28T08:56:42;4.55;;;2.25;;
56043;SDS011;41912;51.022;3.664;2023-07-28T08:59:08;3.83;;;2.30;;
56043;SDS011;41912;51.022;3.664;2023-07-28T09:01:38;4.68;;;2.28;;
56043;SDS011;41912;51.022;3.664;2023-07-28T09:04:11;4.20;;;2.25;;
56043;SDS011;41912;51.022;3.664;2023-07-28T09:06:37;3.75;;;1.90;;
56043;SDS011;41912;51.022;3.664;2023-07-28T09:09:06;6.35;;;2.35;;
56043;SDS011;41912;51.022;3.664;2023-07-28T09:11:32;4.07;;;1.80;;
56043;SDS011;41912;51.022;3.664;2023-07-28T09:13:59;4.68;;;2.25;;
56043;SDS011;41912;51.022;3.664;2023-07-28T09:16:26;4.47;;;1.90;;
56043;SDS011;41912;51.022;3.664;2023-07-28T09:19:04;5.55;;;1.75;;
56043;SDS011;41912;51.022;3.664;2023-07-28T09:21:33;4.75;;;1.42;;
56043;SDS011;41912;51.022;3.664;2023-07-28T09:23:59;3.10;;;1.92;;
56043;SDS011;41912;51.022;3.664;2023-07-28T09:26:36;3.08;;;1.50;;
56043;SDS011;41912;51.022;3.664;2023-07-28T09:29:15;3.10;;;1.60;;
56043;SDS011;41912;51.022;3.664;2023-07-28T09:31:42;6.93;;;2.08;;
56043;SDS011;41912;51.022;3.664;2023-07-28T09:34:09;3.15;;;1.50;;
56043;SDS011;41912;51.022;3.664;2023-07-28T09:36:35;5.72;;;1.88;;
56043;SDS011;41912;51.022;3.664;2023-07-28T09:39:03;4.75;;;1.73;;
56043;SDS011;41912;51.022;3.664;2023-07-28T09:41:34;2.78;;;2.08;;
56043;SDS011;41912;51.022;3.664;2023-07-28T09:44:04;6.30;;;1.80;;
56043;SDS011;41912;51.022;3.664;2023-07-28T09:46:33;3.75;;;1.75;;
56043;SDS011;41912;51.022;3.664;2023-07-28T09:49:05;4.63;;;2.13;;
56043;SDS011;41912;51.022;3.664;2023-07-28T09:51:37;3.83;;;1.80;;
56043;SDS011;41912;51.022;3.664;2023-07-28T09:54:12;5.05;;;1.90;;
56043;SDS011;41912;51.022;3.664;2023-07-28T09:56:41;3.13;;;1.80;;
56043;SDS011;41912;51.022;3.664;2023-07-28T09:59:10;3.00;;;1.70;;
56043;SDS011;41912;51.022;3.664;2023-07-28T10:01:38;6.55;;;1.80;;
56043;SDS011;41912;51.022;3.664;2023-07-28T10:04:04;5.07;;;1.55;;
56043;SDS011;41912;51.022;3.664;2023-07-28T10:06:30;2.83;;;1.40;;
56043;SDS011;41912;51.022;3.664;2023-07-28T10:08:59;4.22;;;1.75;;
56043;SDS011;41912;51.022;3.664;2023-07-28T10:11:24;4.63;;;1.48;;
56043;SDS011;41912;51.022;3.664;2023-07-28T10:13:53;3.08;;;1.50;;
56043;SDS011;41912;51.022;3.664;2023-07-28T10:16:19;3.08;;;1.50;;
56043;SDS011;41912;51.022;3.664;2023-07-28T10:18:54;2.13;;;1.50;;
56043;SDS011;41912;51.022;3.664;2023-07-28T10:21:20;4.85;;;1.00;;
56043;SDS011;41912;51.022;3.664;2023-07-28T10:23:53;1.65;;;1.02;;
56043;SDS011;41912;51.022;3.664;2023-07-28T10:26:36;4.55;;;1.15;;
56043;SDS011;41912;51.022;3.664;2023-07-28T10:29:13;5.43;;;0.90;;
56043;SDS011;41912;51.022;3.664;2023-07-28T10:31:53;2.88;;;1.00;;
56043;SDS011;41912;51.022;3.664;2023-07-28T10:34:20;1.77;;;0.80;;
56043;SDS011;41912;51.022;3.664;2023-07-28T10:36:47;1.33;;;0.88;;
56043;SDS011;41912;51.022;3.664;2023-07-28T10:39:22;0.93;;;0.50;;
56043;SDS011;41912;51.022;3.664;2023-07-28T10:44:29;1.38;;;0.75;;
56043;SDS011;41912;51.022;3.664;2023-07-28T10:46:55;3.67;;;0.80;;
56043;SDS011;41912;51.022;3.664;2023-07-28T10:49:21;1.75;;;0.70;;
56043;SDS011;41912;51.022;3.664;2023-07-28T10:51:49;4.28;;;0.98;;
56043;SDS011;41912;51.022;3.664;2023-07-28T10:54:14;1.63;;;0.70;;
56043;SDS011;41912;51.022;3.664;2023-07-28T10:56:43;2.10;;;0.68;;
56043;SDS011;41912;51.022;3.664;2023-07-28T10:59:09;2.33;;;0.93;;
56043;SDS011;41912;51.022;3.664;2023-07-28T11:01:38;2.60;;;1.20;;
56043;SDS011;41912;51.022;3.664;2023-07-28T11:04:15;2.47;;;1.10;;
56043;SDS011;41912;51.022;3.664;2023-07-28T11:06:45;2.67;;;1.00;;
56043;SDS011;41912;51.022;3.664;2023-07-28T11:09:13;1.95;;;0.98;;
56043;SDS011;41912;51.022;3.664;2023-07-28T11:11:39;2.38;;;1.05;;
56043;SDS011;41912;51.022;3.664;2023-07-28T11:14:07;6.03;;;0.90;;
56043;SDS011;41912;51.022;3.664;2023-07-28T11:16:34;3.13;;;1.00;;
56043;SDS011;41912;51.022;3.664;2023-07-28T11:19:01;1.85;;;1.10;;
56043;SDS011;41912;51.022;3.664;2023-07-28T11:21:28;2.88;;;1.42;;
56043;SDS011;41912;51.022;3.664;2023-07-28T11:23:55;2.83;;;1.15;;
56043;SDS011;41912;51.022;3.664;2023-07-28T11:26:21;2.10;;;0.88;;
56043;SDS011;41912;51.022;3.664;2023-07-28T11:28:47;2.38;;;1.10;;
56043;SDS011;41912;51.022;3.664;2023-07-28T11:31:13;5.55;;;1.48;;
56043;SDS011;41912;51.022;3.664;2023-07-28T11:33:39;1.20;;;0.93;;
56043;SDS011;41912;51.022;3.664;2023-07-28T11:36:05;1.42;;;1.00;;
56043;SDS011;41912;51.022;3.664;2023-07-28T11:38:31;2.28;;;1.30;;
56043;SDS011;41912;51.022;3.664;2023-07-28T11:40:58;3.72;;;1.20;;
56043;SDS011;41912;51.022;3.664;2023-07-28T11:43:25;3.20;;;1.10;;
56043;SDS011;41912;51.022;3.664;2023-07-28T11:45:51;1.98;;;1.17;;
56043;SDS011;41912;51.022;3.664;2023-07-28T11:48:16;2.78;;;1.30;;
56043;SDS011;41912;51.022;3.664;2023-07-28T11:50:43;5.05;;;1.17;;
56043;SDS011;41912;51.022;3.664;2023-07-28T11:53:10;2.75;;;1.15;;
56043;SDS011;41912;51.022;3.664;2023-07-28T11:55:36;3.55;;;1.42;;
56043;SDS011;41912;51.022;3.664;2023-07-28T11:58:03;2.55;;;1.20;;
56043;SDS011;41912;51.022;3.664;2023-07-28T12:00:31;9.35;;;1.45;;
56043;SDS011;41912;51.022;3.664;2023-07-28T12:03:02;3.10;;;1.40;;
56043;SDS011;41912;51.022;3.664;2023-07-28T12:05:36;4.05;;;1.73;;
56043;SDS011;41912;51.022;3.664;2023-07-28T12:08:03;3.92;;;1.58;;
56043;SDS011;41912;51.022;3.664;2023-07-28T12:10:29;4.25;;;1.88;;
56043;SDS011;41912;51.022;3.664;2023-07-28T12:12:56;2.35;;;1.02;;
56043;SDS011;41912;51.022;3.664;2023-07-28T12:20:34;3.10;;;1.30;;
56043;SDS011;41912;51.022;3.664;2023-07-28T12:23:03;3.88;;;1.00;;
56043;SDS011;41912;51.022;3.664;2023-07-28T12:25:30;1.92;;;1.08;;
56043;SDS011;41912;51.022;3.664;2023-07-28T12:27:56;2.50;;;1.20;;
56043;SDS011;41912;51.022;3.664;2023-07-28T12:30:21;2.30;;;1.00;;
56043;SDS011;41912;51.022;3.664;2023-07-28T12:32:47;8.18;;;1.40;;
56043;SDS011;41912;51.022;3.664;2023-07-28T12:35:13;2.40;;;0.88;;
56043;SDS011;41912;51.022;3.664;2023-07-28T12:37:39;2.97;;;1.20;;
56043;SDS011;41912;51.022;3.664;2023-07-28T12:40:05;3.90;;;1.20;;
56043;SDS011;41912;51.022;3.664;2023-07-28T12:42:31;5.28;;;1.35;;
56043;SDS011;41912;51.022;3.664;2023-07-28T12:44:57;1.52;;;1.00;;
56043;SDS011;41912;51.022;3.664;2023-07-28T12:47:23;1.85;;;0.90;;
56043;SDS011;41912;51.022;3.664;2023-07-28T12:49:49;3.20;;;1.17;;
56043;SDS011;41912;51.022;3.664;2023-07-28T12:52:15;2.70;;;1.20;;
56043;SDS011;41912;51.022;3.664;2023-07-28T12:54:40;1.35;;;0.90;;
56043;SDS011;41912;51.022;3.664;2023-07-28T12:57:07;2.28;;;0.90;;
56043;SDS011;41912;51.022;3.664;2023-07-28T12:59:35;3.50;;;1.35;;
56043;SDS011;41912;51.022;3.664;2023-07-28T13:02:01;2.42;;;1.02;;
56043;SDS011;41912;51.022;3.664;2023-07-28T13:04:26;6.63;;;1.30;;
56043;SDS011;41912;51.022;3.664;2023-07-28T13:06:52;4.75;;;1.05;;
56043;SDS011;41912;51.022;3.664;2023-07-28T13:09:17;4.45;;;0.95;;
56043;SDS011;41912;51.022;3.664;2023-07-28T13:11:43;3.30;;;1.05;;
56043;SDS011;41912;51.022;3.664;2023-07-28T13:14:09;2.45;;;0.90;;
56043;SDS011;41912;51.022;3.664;2023-07-28T13:16:35;5.57;;;1.20;;
56043;SDS011;41912;51.022;3.664;2023-07-28T13:19:02;2.13;;;1.20;;
56043;SDS011;41912;51.022;3.664;2023-07-28T13:21:29;4.15;;;1.00;;
56043;SDS011;41912;51.022;3.664;2023-07-28T13:23:54;2.97;;;1.25;;
56043;SDS011;41912;51.022;3.664;2023-07-28T13:26:20;1.75;;;0.95;;
56043;SDS011;41912;51.022;3.664;2023-07-28T13:28:45;2.90;;;0.93;;
56043;SDS011;41912;51.022;3.664;2023-07-28T13:31:15;3.33;;;1.05;;
56043;SDS011;41912;51.022;3.664;2023-07-28T13:33:41;2.42;;;0.80;;
56043;SDS011;41912;51.022;3.664;2023-07-28T13:36:07;3.50;;;0.85;;
56043;SDS011;41912;51.022;3.664;2023-07-28T13:38:33;5.57;;;1.45;;
56043;SDS011;41912;51.022;3.664;2023-07-28T13:40:59;5.53;;;1.23;;
56043;SDS011;41912;51.022;3.664;2023-07-28T13:43:25;2.53;;;1.30;;
56043;SDS011;41912;51.022;3.664;2023-07-28T13:45:51;3.33;;;0.85;;
56043;SDS011;41912;51.022;3.664;2023-07-28T13:48:17;4.32;;;1.23;;
56043;SDS011;41912;51.022;3.664;2023-07-28T13:50:42;8.05;;;1.23;;
56043;SDS011;41912;51.022;3.664;2023-07-28T13:53:09;2.53;;;1.30;;
56043;SDS011;41912;51.022;3.664;2023-07-28T13:55:35;1.40;;;0.90;;
56043;SDS011;41912;51.022;3.664;2023-07-28T13:58:00;1.35;;;0.85;;
56043;SDS011;41912;51.022;3.664;2023-07-28T14:00:26;1.08;;;0.88;;
56043;SDS011;41912;51.022;3.664;2023-07-28T14:02:51;3.22;;;1.00;;
56043;SDS011;41912;51.022;3.664;2023-07-28T14:05:17;6.30;;;1.10;;
56043;SDS011;41912;51.022;3.664;2023-07-28T14:07:44;3.05;;;1.42;;
56043;SDS011;41912;51.022;3.664;2023-07-28T14:10:10;2.25;;;1.10;;
56043;SDS011;41912;51.022;3.664;2023-07-28T14:12:35;1.77;;;0.90;;
56043;SDS011;41912;51.022;3.664;2023-07-28T14:15:01;2.80;;;1.10;;
56043;SDS011;41912;51.022;3.664;2023-07-28T14:17:28;1.90;;;1.10;;
56043;SDS011;41912;51.022;3.664;2023-07-28T14:19:53;4.03;;;1.10;;
56043;SDS011;41912;51.022;3.664;2023-07-28T14:22:19;3.85;;;1.08;;
56043;SDS011;41912;51.022;3.664;2023-07-28T14:24:45;2.08;;;1.00;;
56043;SDS011;41912;51.022;3.664;2023-07-28T14:27:10;1.20;;;0.70;;
56043;SDS011;41912;51.022;3.664;2023-07-28T14:29:36;1.67;;;1.00;;
56043;SDS011;41912;51.022;3.664;2023-07-28T14:32:02;3.33;;;0.90;;
56043;SDS011;41912;51.022;3.664;2023-07-28T14:34:27;2.63;;;1.20;;
56043;SDS011;41912;51.022;3.664;2023-07-28T14:36:53;2.65;;;0.80;;
56043;SDS011;41912;51.022;3.664;2023-07-28T14:39:18;6.30;;;1.25;;
56043;SDS011;41912;51.022;3.664;2023-07-28T14:41:44;3.17;;;1.00;;
56043;SDS011;41912;51.022;3.664;2023-07-28T14:44:10;2.45;;;1.38;;
56043;SDS011;41912;51.022;3.664;2023-07-28T14:46:35;3.15;;;0.90;;
56043;SDS011;41912;51.022;3.664;2023-07-28T14:49:01;1.85;;;1.10;;
56043;SDS011;41912;51.022;3.664;2023-07-28T14:51:27;2.95;;;0.90;;
56043;SDS011;41912;51.022;3.664;2023-07-28T14:53:53;3.45;;;0.80;;
56043;SDS011;41912;51.022;3.664;2023-07-28T14:56:20;1.40;;;1.05;;
56043;SDS011;41912;51.022;3.664;2023-07-28T14:58:49;4.93;;;1.40;;